sensor_id;sensor_type;location;lat;lon;timestamp;P1;durP1;ratioP1;P2;durP2;ratioP2
46717;SDS011;32448;44.960;-0.698;2024-02-15T00:00:00;10.25;;;7.15;;
46717;SDS011;32448;44.960;-0.698;2024-02-15T00:02:29;10.80;;;6.43;;
46717;SDS011;32448;44.960;-0.698;2024-02-15T00:04:56;9.68;;;5.82;;
46717;SDS011;32448;44.960;-0.698;2024-02-15T00:07:23;11.35;;;6.50;;
46717;SDS011;32448;44.960;-0.698;2024-02-15T00:09:50;9.88;;;5.53;;
46717;SDS011;32448;44.960;-0.698;2024-02-15T00:12:18;11.13;;;6.93;;
46717;SDS011;32448;44.960;-0.698;2024-02-15T00:14:45;8.85;;;4.90;;
46717;SDS011;32448;44.960;-0.698;2024-02-15T00:17:12;10.25;;;5.43;;
46717;SDS011;32448;44.960;-0.698;2024-02-15T00:19:39;7.57;;;4.93;;
46717;SDS011;32448;44.960;-0.698;2024-02-15T00:22:08;9.55;;;4.82;;
46717;SDS011;32448;44.960;-0.698;2024-02-15T00:24:37;10.73;;;5.25;;
46717;SDS011;32448;44.960;-0.698;2024-02-15T00:27:04;8.77;;;4.85;;
46717;SDS011;32448;44.960;-0.698;2024-02-15T00:29:32;9.65;;;4.55;;
46717;SDS011;32448;44.960;-0.698;2024-02-15T00:32:01;7.72;;;4.65;;
46717;SDS011;32448;44.960;-0.698;2024-02-15T00:34:30;6.28;;;3.92;;
46717;SDS011;32448;44.960;-0.698;2024-02-15T00:36:58;8.50;;;3.67;;
46717;SDS011;32448;44.960;-0.698;2024-02-15T00:39:25;7.60;;;3.50;;
46717;SDS011;32448;44.960;-0.698;2024-02-15T00:41:51;5.28;;;2.97;;
46717;SDS011;32448;44.960;-0.698;2024-02-15T00:44:18;4.10;;;3.13;;
46717;SDS011;32448;44.960;-0.698;2024-02-15T00:46:45;6.05;;;2.80;;
46717;SDS011;32448;44.960;-0.698;2024-02-15T00:49:14;4.45;;;2.53;;
46717;SDS011;32448;44.960;-0.698;2024-02-15T00:51:41;4.15;;;2.60;;
46717;SDS011;32448;44.960;-0.698;2024-02-15T00:54:08;5.60;;;2.25;;
46717;SDS011;32448;44.960;-0.698;2024-02-15T00:56:35;4.35;;;2.60;;
46717;SDS011;32448;44.960;-0.698;2024-02-15T00:59:02;5.88;;;2.70;;
46717;SDS011;32448;44.960;-0.698;2024-02-15T01:01:31;3.03;;;2.10;;
46717;SDS011;32448;44.960;-0.698;2024-02-15T01:03:59;5.00;;;2.10;;
46717;SDS011;32448;44.960;-0.698;2024-02-15T01:06:26;4.82;;;2.03;;
46717;SDS011;32448;44.960;-0.698;2024-02-15T01:08:53;5.68;;;2.47;;
46717;SDS011;32448;44.960;-0.698;2024-02-15T01:11:20;3.15;;;1.90;;
46717;SDS011;32448;44.960;-0.698;2024-02-15T01:13:48;5.47;;;1.92;;
46717;SDS011;32448;44.960;-0.698;2024-02-15T01:16:16;5.53;;;2.03;;
46717;SDS011;32448;44.960;-0.698;2024-02-15T01:18:43;6.07;;;2.38;;
46717;SDS011;32448;44.960;-0.698;2024-02-15T01:21:10;7.07;;;2.95;;
46717;SDS011;32448;44.960;-0.698;2024-02-15T01:23:38;4.03;;;2.45;;
46717;SDS011;32448;44.960;-0.698;2024-02-15T01:26:05;13.90;;;3.65;;
46717;SDS011;32448;44.960;-0.698;2024-02-15T01:28:32;4.93;;;2.42;;
46717;SDS011;32448;44.960;-0.698;2024-02-15T01:30:59;6.88;;;2.47;;
46717;SDS011;32448;44.960;-0.698;2024-02-15T01:33:26;4.15;;;2.00;;
46717;SDS011;32448;44.960;-0.698;2024-02-15T01:35:54;3.55;;;1.65;;
46717;SDS011;32448;44.960;-0.698;2024-02-15T01:38:21;3.65;;;1.60;;
46717;SDS011;32448;44.960;-0.698;2024-02-15T01:40:48;4.60;;;2.00;;
46717;SDS011;32448;44.960;-0.698;2024-02-15T01:43:15;4.78;;;1.88;;
46717;SDS011;32448;44.960;-0.698;2024-02-15T01:45:42;6.57;;;1.70;;
46717;SDS011;32448;44.960;-0.698;2024-02-15T01:48:09;5.32;;;1.90;;
46717;SDS011;32448;44.960;-0.698;2024-02-15T01:50:37;4.45;;;2.00;;
46717;SDS011;32448;44.960;-0.698;2024-02-15T01:53:06;4.95;;;2.53;;
46717;SDS011;32448;44.960;-0.698;2024-02-15T01:55:35;3.42;;;1.83;;
46717;SDS011;32448;44.960;-0.698;2024-02-15T01:58:02;4.85;;;1.42;;
46717;SDS011;32448;44.960;-0.698;2024-02-15T02:00:30;3.80;;;1.63;;
46717;SDS011;32448;44.960;-0.698;2024-02-15T02:02:58;6.10;;;1.55;;
46717;SDS011;32448;44.960;-0.698;2024-02-15T02:05:29;4.65;;;1.30;;
46717;SDS011;32448;44.960;-0.698;2024-02-15T02:07:58;2.85;;;1.63;;
46717;SDS011;32448;44.960;-0.698;2024-02-15T02:10:28;4.90;;;1.67;;
46717;SDS011;32448;44.960;-0.698;2024-02-15T02:13:00;3.65;;;1.30;;
46717;SDS011;32448;44.960;-0.698;2024-02-15T02:15:29;3.63;;;1.50;;
46717;SDS011;32448;44.960;-0.698;2024-02-15T02:17:58;3.90;;;1.58;;
46717;SDS011;32448;44.960;-0.698;2024-02-15T02:20:26;2.33;;;1.20;;
46717;SDS011;32448;44.960;-0.698;2024-02-15T02:22:54;7.85;;;1.92;;
46717;SDS011;32448;44.960;-0.698;2024-02-15T02:25:46;4.72;;;1.70;;
46717;SDS011;32448;44.960;-0.698;2024-02-15T02:28:15;2.33;;;1.55;;
46717;SDS011;32448;44.960;-0.698;2024-02-15T02:30:43;3.83;;;1.30;;
46717;SDS011;32448;44.960;-0.698;2024-02-15T02:33:12;3.30;;;1.35;;
46717;SDS011;32448;44.960;-0.698;2024-02-15T02:35:48;3.88;;;1.60;;
46717;SDS011;32448;44.960;-0.698;2024-02-15T02:38:15;5.10;;;1.85;;
46717;SDS011;32448;44.960;-0.698;2024-02-15T02:40:42;5.93;;;1.50;;
46717;SDS011;32448;44.960;-0.698;2024-02-15T02:43:09;2.95;;;1.40;;
46717;SDS011;32448;44.960;-0.698;2024-02-15T02:45:36;2.28;;;1.40;;
46717;SDS011;32448;44.960;-0.698;2024-02-15T02:48:04;3.75;;;1.25;;
46717;SDS011;32448;44.960;-0.698;2024-02-15T02:50:31;3.88;;;1.23;;
46717;SDS011;32448;44.960;-0.698;2024-02-15T02:52:59;3.33;;;1.38;;
46717;SDS011;32448;44.960;-0.698;2024-02-15T02:55:26;2.72;;;1.35;;
46717;SDS011;32448;44.960;-0.698;2024-02-15T02:57:54;2.65;;;1.13;;
46717;SDS011;32448;44.960;-0.698;2024-02-15T03:00:21;2.38;;;1.30;;
46717;SDS011;32448;44.960;-0.698;2024-02-15T03:02:49;9.10;;;1.80;;
46717;SDS011;32448;44.960;-0.698;2024-02-15T03:05:16;3.35;;;1.35;;
46717;SDS011;32448;44.960;-0.698;2024-02-15T03:07:47;5.38;;;1.42;;
46717;SDS011;32448;44.960;-0.698;2024-02-15T03:10:15;3.13;;;1.15;;
46717;SDS011;32448;44.960;-0.698;2024-02-15T03:12:42;3.88;;;1.13;;
46717;SDS011;32448;44.960;-0.698;2024-02-15T03:17:44;4.53;;;1.40;;
46717;SDS011;32448;44.960;-0.698;2024-02-15T03:20:13;3.47;;;1.55;;
46717;SDS011;32448;44.960;-0.698;2024-02-15T03:22:54;2.85;;;1.40;;
46717;SDS011;32448;44.960;-0.698;2024-02-15T03:25:23;2.75;;;1.30;;
46717;SDS011;32448;44.960;-0.698;2024-02-15T03:27:51;5.88;;;1.40;;
46717;SDS011;32448;44.960;-0.698;2024-02-15T03:30:19;3.78;;;1.42;;
46717;SDS011;32448;44.960;-0.698;2024-02-15T03:32:53;2.58;;;1.42;;
46717;SDS011;32448;44.960;-0.698;2024-02-15T03:35:21;1.58;;;1.10;;
46717;SDS011;32448;44.960;-0.698;2024-02-15T03:37:49;3.33;;;1.25;;
46717;SDS011;32448;44.960;-0.698;2024-02-15T03:40:20;2.72;;;1.20;;
46717;SDS011;32448;44.960;-0.698;2024-02-15T03:42:48;5.20;;;1.33;;
46717;SDS011;32448;44.960;-0.698;2024-02-15T03:45:17;3.83;;;1.30;;
46717;SDS011;32448;44.960;-0.698;2024-02-15T03:47:44;2.63;;;1.20;;
46717;SDS011;32448;44.960;-0.698;2024-02-15T03:50:13;2.33;;;1.20;;
46717;SDS011;32448;44.960;-0.698;2024-02-15T03:52:41;3.47;;;1.30;;
46717;SDS011;32448;44.960;-0.698;2024-02-15T03:55:08;3.08;;;1.40;;
46717;SDS011;32448;44.960;-0.698;2024-02-15T03:57:37;8.95;;;1.42;;
46717;SDS011;32448;44.960;-0.698;2024-02-15T04:00:07;3.88;;;1.30;;
46717;SDS011;32448;44.960;-0.698;2024-02-15T04:02:37;5.43;;;1.20;;
46717;SDS011;32448;44.960;-0.698;2024-02-15T04:05:07;3.05;;;1.23;;
46717;SDS011;32448;44.960;-0.698;2024-02-15T04:07:36;2.70;;;1.27;;
46717;SDS011;32448;44.960;-0.698;2024-02-15T04:10:04;2.67;;;1.35;;
46717;SDS011;32448;44.960;-0.698;2024-02-15T04:12:33;2.75;;;1.00;;
46717;SDS011;32448;44.960;-0.698;2024-02-15T04:15:00;3.80;;;1.27;;
46717;SDS011;32448;44.960;-0.698;2024-02-15T04:17:32;5.30;;;1.15;;
46717;SDS011;32448;44.960;-0.698;2024-02-15T04:20:03;3.55;;;1.02;;
46717;SDS011;32448;44.960;-0.698;2024-02-15T04:22:32;2.25;;;1.17;;
46717;SDS011;32448;44.960;-0.698;2024-02-15T04:25:09;2.47;;;1.30;;
46717;SDS011;32448;44.960;-0.698;2024-02-15T04:27:37;2.92;;;1.20;;
46717;SDS011;32448;44.960;-0.698;2024-02-15T04:30:05;3.85;;;1.45;;
46717;SDS011;32448;44.960;-0.698;2024-02-15T04:32:35;6.45;;;1.10;;
46717;SDS011;32448;44.960;-0.698;2024-02-15T04:35:03;3.67;;;0.90;;
46717;SDS011;32448;44.960;-0.698;2024-02-15T04:37:35;3.13;;;1.17;;
46717;SDS011;32448;44.960;-0.698;2024-02-15T04:40:04;3.97;;;1.10;;
46717;SDS011;32448;44.960;-0.698;2024-02-15T04:42:37;2.47;;;1.00;;
46717;SDS011;32448;44.960;-0.698;2024-02-15T04:45:07;3.97;;;1.05;;
46717;SDS011;32448;44.960;-0.698;2024-02-15T04:47:36;3.70;;;1.58;;
46717;SDS011;32448;44.960;-0.698;2024-02-15T04:50:04;2.17;;;1.20;;
46717;SDS011;32448;44.960;-0.698;2024-02-15T04:52:32;2.08;;;1.10;;
46717;SDS011;32448;44.960;-0.698;2024-02-15T04:55:00;5.00;;;1.00;;
46717;SDS011;32448;44.960;-0.698;2024-02-15T04:57:31;2.00;;;1.33;;
46717;SDS011;32448;44.960;-0.698;2024-02-15T04:59:59;1.80;;;1.00;;
46717;SDS011;32448;44.960;-0.698;2024-02-15T05:02:26;2.03;;;1.10;;
46717;SDS011;32448;44.960;-0.698;2024-02-15T05:04:53;1.95;;;0.90;;
46717;SDS011;32448;44.960;-0.698;2024-02-15T05:07:23;2.08;;;0.90;;
46717;SDS011;32448;44.960;-0.698;2024-02-15T05:09:50;2.97;;;0.90;;
46717;SDS011;32448;44.960;-0.698;2024-02-15T05:12:25;1.48;;;0.98;;
46717;SDS011;32448;44.960;-0.698;2024-02-15T05:14:52;2.15;;;1.02;;
46717;SDS011;32448;44.960;-0.698;2024-02-15T05:17:20;3.28;;;0.98;;
46717;SDS011;32448;44.960;-0.698;2024-02-15T05:19:49;2.90;;;1.10;;
46717;SDS011;32448;44.960;-0.698;2024-02-15T05:22:16;5.05;;;1.20;;
46717;SDS011;32448;44.960;-0.698;2024-02-15T05:24:46;2.25;;;1.00;;
46717;SDS011;32448;44.960;-0.698;2024-02-15T05:27:13;4.13;;;1.05;;
46717;SDS011;32448;44.960;-0.698;2024-02-15T05:29:40;1.65;;;0.82;;
46717;SDS011;32448;44.960;-0.698;2024-02-15T05:32:10;1.90;;;1.05;;
46717;SDS011;32448;44.960;-0.698;2024-02-15T05:34:37;3.13;;;1.23;;
46717;SDS011;32448;44.960;-0.698;2024-02-15T05:37:07;3.65;;;1.17;;
46717;SDS011;32448;44.960;-0.698;2024-02-15T05:39:33;2.65;;;1.30;;
46717;SDS011;32448;44.960;-0.698;2024-02-15T05:42:00;2.53;;;1.13;;
46717;SDS011;32448;44.960;-0.698;2024-02-15T05:44:28;2.22;;;1.13;;
46717;SDS011;32448;44.960;-0.698;2024-02-15T05:46:55;2.55;;;1.10;;
46717;SDS011;32448;44.960;-0.698;2024-02-15T05:49:22;2.78;;;1.10;;
46717;SDS011;32448;44.960;-0.698;2024-02-15T05:51:50;1.50;;;1.05;;
46717;SDS011;32448;44.960;-0.698;2024-02-15T05:54:20;3.50;;;1.10;;
46717;SDS011;32448;44.960;-0.698;2024-02-15T05:56:49;1.95;;;1.10;;
46717;SDS011;32448;44.960;-0.698;2024-02-15T05:59:19;1.65;;;1.10;;
46717;SDS011;32448;44.960;-0.698;2024-02-15T06:01:47;5.55;;;1.10;;
46717;SDS011;32448;44.960;-0.698;2024-02-15T06:04:19;3.85;;;1.60;;
46717;SDS011;32448;44.960;-0.698;2024-02-15T06:06:46;2.53;;;1.30;;
46717;SDS011;32448;44.960;-0.698;2024-02-15T06:12:15;3.33;;;1.35;;
46717;SDS011;32448;44.960;-0.698;2024-02-15T06:15:11;3.42;;;1.20;;
46717;SDS011;32448;44.960;-0.698;2024-02-15T06:17:45;4.75;;;1.00;;
46717;SDS011;32448;44.960;-0.698;2024-02-15T06:20:28;5.97;;;1.25;;
46717;SDS011;32448;44.960;-0.698;2024-02-15T06:22:59;2.92;;;1.27;;
46717;SDS011;32448;44.960;-0.698;2024-02-15T06:28:25;3.30;;;1.33;;
46717;SDS011;32448;44.960;-0.698;2024-02-15T06:31:13;2.17;;;1.30;;
46717;SDS011;32448;44.960;-0.698;2024-02-15T06:34:04;1.88;;;1.40;;
46717;SDS011;32448;44.960;-0.698;2024-02-15T06:37:07;6.03;;;1.30;;
46717;SDS011;32448;44.960;-0.698;2024-02-15T06:40:00;1.70;;;1.10;;
46717;SDS011;32448;44.960;-0.698;2024-02-15T06:45:05;4.43;;;1.35;;
46717;SDS011;32448;44.960;-0.698;2024-02-15T06:47:38;3.00;;;1.20;;
46717;SDS011;32448;44.960;-0.698;2024-02-15T06:50:10;6.68;;;1.50;;
46717;SDS011;32448;44.960;-0.698;2024-02-15T06:52:38;3.10;;;1.33;;
46717;SDS011;32448;44.960;-0.698;2024-02-15T06:55:07;5.50;;;1.40;;
46717;SDS011;32448;44.960;-0.698;2024-02-15T06:57:39;3.05;;;1.50;;
46717;SDS011;32448;44.960;-0.698;2024-02-15T07:00:10;2.80;;;1.20;;
46717;SDS011;32448;44.960;-0.698;2024-02-15T07:02:49;4.20;;;1.52;;
46717;SDS011;32448;44.960;-0.698;2024-02-15T07:05:18;4.50;;;1.50;;
46717;SDS011;32448;44.960;-0.698;2024-02-15T07:08:08;4.22;;;1.48;;
46717;SDS011;32448;44.960;-0.698;2024-02-15T07:10:41;4.93;;;1.40;;
46717;SDS011;32448;44.960;-0.698;2024-02-15T07:13:31;4.47;;;1.30;;
46717;SDS011;32448;44.960;-0.698;2024-02-15T07:16:16;2.88;;;1.67;;
46717;SDS011;32448;44.960;-0.698;2024-02-15T07:18:46;2.90;;;1.63;;
46717;SDS011;32448;44.960;-0.698;2024-02-15T07:21:14;2.88;;;1.60;;
46717;SDS011;32448;44.960;-0.698;2024-02-15T07:23:45;5.13;;;1.75;;
46717;SDS011;32448;44.960;-0.698;2024-02-15T07:26:25;4.75;;;1.88;;
46717;SDS011;32448;44.960;-0.698;2024-02-15T07:28:54;4.43;;;1.63;;
46717;SDS011;32448;44.960;-0.698;2024-02-15T07:31:28;6.43;;;2.58;;
46717;SDS011;32448;44.960;-0.698;2024-02-15T07:34:08;5.88;;;2.38;;
46717;SDS011;32448;44.960;-0.698;2024-02-15T07:36:44;3.30;;;1.90;;
46717;SDS011;32448;44.960;-0.698;2024-02-15T07:39:19;3.63;;;1.75;;
46717;SDS011;32448;44.960;-0.698;2024-02-15T07:41:54;3.97;;;1.80;;
46717;SDS011;32448;44.960;-0.698;2024-02-15T07:44:22;2.42;;;1.60;;
46717;SDS011;32448;44.960;-0.698;2024-02-15T07:47:10;4.47;;;1.80;;
46717;SDS011;32448;44.960;-0.698;2024-02-15T07:49:38;5.50;;;1.90;;
46717;SDS011;32448;44.960;-0.698;2024-02-15T07:52:05;3.55;;;1.83;;
46717;SDS011;32448;44.960;-0.698;2024-02-15T07:54:39;5.57;;;2.25;;
46717;SDS011;32448;44.960;-0.698;2024-02-15T07:57:15;10.57;;;2.08;;
46717;SDS011;32448;44.960;-0.698;2024-02-15T07:59:50;4.30;;;2.28;;
46717;SDS011;32448;44.960;-0.698;2024-02-15T08:02:21;6.00;;;1.80;;
46717;SDS011;32448;44.960;-0.698;2024-02-15T08:04:50;4.28;;;1.80;;
46717;SDS011;32448;44.960;-0.698;2024-02-15T08:07:19;6.22;;;2.05;;
46717;SDS011;32448;44.960;-0.698;2024-02-15T08:10:16;3.85;;;2.10;;
46717;SDS011;32448;44.960;-0.698;2024-02-15T08:12:48;5.05;;;1.85;;
46717;SDS011;32448;44.960;-0.698;2024-02-15T08:15:23;6.18;;;2.15;;
46717;SDS011;32448;44.960;-0.698;2024-02-15T08:18:19;3.45;;;2.13;;
46717;SDS011;32448;44.960;-0.698;2024-02-15T08:23:20;4.55;;;2.17;;
46717;SDS011;32448;44.960;-0.698;2024-02-15T08:25:47;3.80;;;2.05;;
46717;SDS011;32448;44.960;-0.698;2024-02-15T08:28:17;4.32;;;2.15;;
46717;SDS011;32448;44.960;-0.698;2024-02-15T08:30:52;4.30;;;2.10;;
46717;SDS011;32448;44.960;-0.698;2024-02-15T08:33:31;3.97;;;2.03;;
46717;SDS011;32448;44.960;-0.698;2024-02-15T08:36:01;3.88;;;2.25;;
46717;SDS011;32448;44.960;-0.698;2024-02-15T08:38:37;5.15;;;2.42;;
46717;SDS011;32448;44.960;-0.698;2024-02-15T08:41:08;5.30;;;2.40;;
46717;SDS011;32448;44.960;-0.698;2024-02-15T08:44:01;2.65;;;2.17;;
46717;SDS011;32448;44.960;-0.698;2024-02-15T08:46:47;3.70;;;2.60;;
46717;SDS011;32448;44.960;-0.698;2024-02-15T08:49:18;3.80;;;2.40;;
46717;SDS011;32448;44.960;-0.698;2024-02-15T08:51:49;10.48;;;2.65;;
46717;SDS011;32448;44.960;-0.698;2024-02-15T08:54:31;6.55;;;3.10;;
46717;SDS011;32448;44.960;-0.698;2024-02-15T08:57:06;6.68;;;2.50;;
46717;SDS011;32448;44.960;-0.698;2024-02-15T08:59:48;4.43;;;2.55;;
46717;SDS011;32448;44.960;-0.698;2024-02-15T09:02:16;4.22;;;2.38;;
46717;SDS011;32448;44.960;-0.698;2024-02-15T09:04:56;4.78;;;2.78;;
46717;SDS011;32448;44.960;-0.698;2024-02-15T09:07:42;8.50;;;2.95;;
46717;SDS011;32448;44.960;-0.698;2024-02-15T09:10:17;3.40;;;2.70;;
46717;SDS011;32448;44.960;-0.698;2024-02-15T09:12:53;3.72;;;2.50;;
46717;SDS011;32448;44.960;-0.698;2024-02-15T09:15:22;7.28;;;2.88;;
46717;SDS011;32448;44.960;-0.698;2024-02-15T09:17:59;4.85;;;2.70;;
46717;SDS011;32448;44.960;-0.698;2024-02-15T09:20:34;6.25;;;3.05;;
46717;SDS011;32448;44.960;-0.698;2024-02-15T09:23:29;6.32;;;2.92;;
46717;SDS011;32448;44.960;-0.698;2024-02-15T09:25:59;5.07;;;3.28;;
46717;SDS011;32448;44.960;-0.698;2024-02-15T09:28:27;4.60;;;2.78;;
46717;SDS011;32448;44.960;-0.698;2024-02-15T09:30:59;6.93;;;2.97;;
46717;SDS011;32448;44.960;-0.698;2024-02-15T09:33:55;6.95;;;3.38;;
46717;SDS011;32448;44.960;-0.698;2024-02-15T09:36:25;7.30;;;3.10;;
46717;SDS011;32448;44.960;-0.698;2024-02-15T09:39:14;5.72;;;3.13;;
46717;SDS011;32448;44.960;-0.698;2024-02-15T09:41:49;5.72;;;3.30;;
46717;SDS011;32448;44.960;-0.698;2024-02-15T09:44:38;7.32;;;3.90;;
46717;SDS011;32448;44.960;-0.698;2024-02-15T09:47:10;3.92;;;2.80;;
46717;SDS011;32448;44.960;-0.698;2024-02-15T09:52:51;6.55;;;3.03;;
46717;SDS011;32448;44.960;-0.698;2024-02-15T09:55:25;6.10;;;3.20;;
46717;SDS011;32448;44.960;-0.698;2024-02-15T09:57:55;3.85;;;2.88;;
46717;SDS011;32448;44.960;-0.698;2024-02-15T10:00:28;5.57;;;3.20;;
46717;SDS011;32448;44.960;-0.698;2024-02-15T10:02:58;5.72;;;3.22;;
46717;SDS011;32448;44.960;-0.698;2024-02-15T10:05:31;5.95;;;2.90;;
46717;SDS011;32448;44.960;-0.698;2024-02-15T10:08:05;5.80;;;3.20;;
46717;SDS011;32448;44.960;-0.698;2024-02-15T10:13:18;4.97;;;3.20;;
46717;SDS011;32448;44.960;-0.698;2024-02-15T10:15:56;7.78;;;3.58;;
46717;SDS011;32448;44.960;-0.698;2024-02-15T10:18:30;18.63;;;11.10;;
46717;SDS011;32448;44.960;-0.698;2024-02-15T10:21:30;9.18;;;5.05;;
46717;SDS011;32448;44.960;-0.698;2024-02-15T10:24:31;7.72;;;4.18;;
46717;SDS011;32448;44.960;-0.698;2024-02-15T10:27:01;7.85;;;3.50;;
46717;SDS011;32448;44.960;-0.698;2024-02-15T10:29:45;5.57;;;3.50;;
46717;SDS011;32448;44.960;-0.698;2024-02-15T10:32:20;8.75;;;3.95;;
46717;SDS011;32448;44.960;-0.698;2024-02-15T10:35:01;5.57;;;3.80;;
46717;SDS011;32448;44.960;-0.698;2024-02-15T10:37:31;7.65;;;3.85;;
46717;SDS011;32448;44.960;-0.698;2024-02-15T10:40:06;7.45;;;4.30;;
46717;SDS011;32448;44.960;-0.698;2024-02-15T10:42:36;7.32;;;4.97;;
46717;SDS011;32448;44.960;-0.698;2024-02-15T10:45:05;7.18;;;4.22;;
46717;SDS011;32448;44.960;-0.698;2024-02-15T10:47:40;6.47;;;5.50;;
46717;SDS011;32448;44.960;-0.698;2024-02-15T10:50:12;7.03;;;4.55;;
46717;SDS011;32448;44.960;-0.698;2024-02-15T10:52:55;6.72;;;4.78;;
46717;SDS011;32448;44.960;-0.698;2024-02-15T10:55:35;6.85;;;4.93;;
46717;SDS011;32448;44.960;-0.698;2024-02-15T10:58:22;5.45;;;4.15;;
46717;SDS011;32448;44.960;-0.698;2024-02-15T11:01:22;6.15;;;4.38;;
46717;SDS011;32448;44.960;-0.698;2024-02-15T11:04:42;5.18;;;4.00;;
46717;SDS011;32448;44.960;-0.698;2024-02-15T11:07:12;3.72;;;3.13;;
46717;SDS011;32448;44.960;-0.698;2024-02-15T11:09:56;4.50;;;3.17;;
46717;SDS011;32448;44.960;-0.698;2024-02-15T11:12:34;5.32;;;2.88;;
46717;SDS011;32448;44.960;-0.698;2024-02-15T11:22:08;3.75;;;2.22;;
46717;SDS011;32448;44.960;-0.698;2024-02-15T11:24:34;2.72;;;1.67;;
46717;SDS011;32448;44.960;-0.698;2024-02-15T11:30:57;3.67;;;2.00;;
46717;SDS011;32448;44.960;-0.698;2024-02-15T11:33:38;3.90;;;2.05;;
46717;SDS011;32448;44.960;-0.698;2024-02-15T11:36:11;2.40;;;1.90;;
46717;SDS011;32448;44.960;-0.698;2024-02-15T11:38:40;3.40;;;2.22;;
46717;SDS011;32448;44.960;-0.698;2024-02-15T11:44:09;5.50;;;1.95;;
46717;SDS011;32448;44.960;-0.698;2024-02-15T11:46:39;3.00;;;1.92;;
46717;SDS011;32448;44.960;-0.698;2024-02-15T11:49:34;4.43;;;1.92;;
46717;SDS011;32448;44.960;-0.698;2024-02-15T11:52:09;2.85;;;1.90;;
46717;SDS011;32448;44.960;-0.698;2024-02-15T11:55:06;3.60;;;1.90;;
46717;SDS011;32448;44.960;-0.698;2024-02-15T11:57:41;2.47;;;1.73;;
46717;SDS011;32448;44.960;-0.698;2024-02-15T12:00:22;3.60;;;1.88;;
46717;SDS011;32448;44.960;-0.698;2024-02-15T12:03:13;2.88;;;1.67;;
46717;SDS011;32448;44.960;-0.698;2024-02-15T12:06:01;2.53;;;1.75;;
46717;SDS011;32448;44.960;-0.698;2024-02-15T12:08:49;3.55;;;2.10;;
46717;SDS011;32448;44.960;-0.698;2024-02-15T12:11:45;2.75;;;1.80;;
46717;SDS011;32448;44.960;-0.698;2024-02-15T12:15:03;3.30;;;1.80;;
46717;SDS011;32448;44.960;-0.698;2024-02-15T12:17:49;2.97;;;1.80;;
46717;SDS011;32448;44.960;-0.698;2024-02-15T12:20:42;2.83;;;1.85;;
46717;SDS011;32448;44.960;-0.698;2024-02-15T12:23:15;3.28;;;2.00;;
46717;SDS011;32448;44.960;-0.698;2024-02-15T12:25:50;3.08;;;1.75;;
46717;SDS011;32448;44.960;-0.698;2024-02-15T12:28:20;4.70;;;2.10;;
46717;SDS011;32448;44.960;-0.698;2024-02-15T12:30:54;3.63;;;1.60;;
46717;SDS011;32448;44.960;-0.698;2024-02-15T12:33:26;2.35;;;1.80;;
46717;SDS011;32448;44.960;-0.698;2024-02-15T12:36:07;5.32;;;1.60;;
46717;SDS011;32448;44.960;-0.698;2024-02-15T12:38:36;3.05;;;1.90;;
46717;SDS011;32448;44.960;-0.698;2024-02-15T12:41:19;7.70;;;1.80;;
46717;SDS011;32448;44.960;-0.698;2024-02-15T12:43:46;3.15;;;1.73;;
46717;SDS011;32448;44.960;-0.698;2024-02-15T12:46:19;2.00;;;1.52;;
46717;SDS011;32448;44.960;-0.698;2024-02-15T12:48:46;3.20;;;1.38;;
46717;SDS011;32448;44.960;-0.698;2024-02-15T12:51:13;2.65;;;1.92;;
46717;SDS011;32448;44.960;-0.698;2024-02-15T12:53:43;2.08;;;1.75;;
46717;SDS011;32448;44.960;-0.698;2024-02-15T12:56:10;2.92;;;1.65;;
46717;SDS011;32448;44.960;-0.698;2024-02-15T12:58:46;2.42;;;1.92;;
46717;SDS011;32448;44.960;-0.698;2024-02-15T13:01:15;2.28;;;1.70;;
46717;SDS011;32448;44.960;-0.698;2024-02-15T13:03:48;5.90;;;1.98;;
46717;SDS011;32448;44.960;-0.698;2024-02-15T13:06:20;5.15;;;2.17;;
46717;SDS011;32448;44.960;-0.698;2024-02-15T13:08:56;3.25;;;1.88;;
46717;SDS011;32448;44.960;-0.698;2024-02-15T13:11:23;3.00;;;2.10;;
46717;SDS011;32448;44.960;-0.698;2024-02-15T13:13:52;4.57;;;2.20;;
46717;SDS011;32448;44.960;-0.698;2024-02-15T13:16:22;3.03;;;2.22;;
46717;SDS011;32448;44.960;-0.698;2024-02-15T13:18:55;2.50;;;2.00;;
46717;SDS011;32448;44.960;-0.698;2024-02-15T13:21:25;9.40;;;3.65;;
46717;SDS011;32448;44.960;-0.698;2024-02-15T13:23:58;2.55;;;2.08;;
46717;SDS011;32448;44.960;-0.698;2024-02-15T13:26:25;4.90;;;2.00;;
46717;SDS011;32448;44.960;-0.698;2024-02-15T13:29:00;3.67;;;2.15;;
46717;SDS011;32448;44.960;-0.698;2024-02-15T13:31:30;5.53;;;2.35;;
46717;SDS011;32448;44.960;-0.698;2024-02-15T13:34:01;4.13;;;2.20;;
46717;SDS011;32448;44.960;-0.698;2024-02-15T13:36:28;3.80;;;1.85;;
46717;SDS011;32448;44.960;-0.698;2024-02-15T13:38:59;3.72;;;2.05;;
46717;SDS011;32448;44.960;-0.698;2024-02-15T13:41:32;2.35;;;1.98;;
46717;SDS011;32448;44.960;-0.698;2024-02-15T13:44:00;1.95;;;1.55;;
46717;SDS011;32448;44.960;-0.698;2024-02-15T13:46:29;3.13;;;1.60;;
46717;SDS011;32448;44.960;-0.698;2024-02-15T13:48:57;4.03;;;1.83;;
46717;SDS011;32448;44.960;-0.698;2024-02-15T13:51:42;3.28;;;1.70;;
46717;SDS011;32448;44.960;-0.698;2024-02-15T13:54:12;3.10;;;1.73;;
46717;SDS011;32448;44.960;-0.698;2024-02-15T13:56:40;2.75;;;1.50;;
46717;SDS011;32448;44.960;-0.698;2024-02-15T13:59:11;2.92;;;1.50;;
46717;SDS011;32448;44.960;-0.698;2024-02-15T14:02:01;3.17;;;2.00;;
46717;SDS011;32448;44.960;-0.698;2024-02-15T14:04:39;2.95;;;1.83;;
46717;SDS011;32448;44.960;-0.698;2024-02-15T14:07:08;6.68;;;2.42;;
46717;SDS011;32448;44.960;-0.698;2024-02-15T14:09:45;2.60;;;1.80;;
46717;SDS011;32448;44.960;-0.698;2024-02-15T14:12:18;3.38;;;1.50;;
46717;SDS011;32448;44.960;-0.698;2024-02-15T14:14:50;2.33;;;1.50;;
46717;SDS011;32448;44.960;-0.698;2024-02-15T14:17:29;4.25;;;1.80;;
46717;SDS011;32448;44.960;-0.698;2024-02-15T14:20:25;2.35;;;1.60;;
46717;SDS011;32448;44.960;-0.698;2024-02-15T14:23:04;4.97;;;2.17;;
46717;SDS011;32448;44.960;-0.698;2024-02-15T14:25:34;2.78;;;1.48;;
46717;SDS011;32448;44.960;-0.698;2024-02-15T14:28:06;2.08;;;1.77;;
46717;SDS011;32448;44.960;-0.698;2024-02-15T14:30:45;2.90;;;1.58;;
46717;SDS011;32448;44.960;-0.698;2024-02-15T14:33:32;2.13;;;1.52;;
46717;SDS011;32448;44.960;-0.698;2024-02-15T14:36:22;4.60;;;1.70;;
46717;SDS011;32448;44.960;-0.698;2024-02-15T14:38:50;3.97;;;1.85;;
46717;SDS011;32448;44.960;-0.698;2024-02-15T14:41:32;3.08;;;2.20;;
46717;SDS011;32448;44.960;-0.698;2024-02-15T14:44:23;3.58;;;1.80;;
46717;SDS011;32448;44.960;-0.698;2024-02-15T14:46:50;5.80;;;2.10;;
46717;SDS011;32448;44.960;-0.698;2024-02-15T14:49:20;3.55;;;1.70;;
46717;SDS011;32448;44.960;-0.698;2024-02-15T14:52:14;3.65;;;1.55;;
46717;SDS011;32448;44.960;-0.698;2024-02-15T14:54:58;1.85;;;1.35;;
46717;SDS011;32448;44.960;-0.698;2024-02-15T14:57:31;2.58;;;1.60;;
46717;SDS011;32448;44.960;-0.698;2024-02-15T15:00:14;3.08;;;1.77;;
46717;SDS011;32448;44.960;-0.698;2024-02-15T15:02:47;2.50;;;1.50;;
46717;SDS011;32448;44.960;-0.698;2024-02-15T15:05:35;3.63;;;1.80;;
46717;SDS011;32448;44.960;-0.698;2024-02-15T15:08:39;4.15;;;1.88;;
46717;SDS011;32448;44.960;-0.698;2024-02-15T15:11:28;4.22;;;1.77;;
46717;SDS011;32448;44.960;-0.698;2024-02-15T15:14:15;3.17;;;1.88;;
46717;SDS011;32448;44.960;-0.698;2024-02-15T15:16:48;3.75;;;1.60;;
46717;SDS011;32448;44.960;-0.698;2024-02-15T15:19:20;3.97;;;1.50;;
46717;SDS011;32448;44.960;-0.698;2024-02-15T15:21:51;5.85;;;1.65;;
46717;SDS011;32448;44.960;-0.698;2024-02-15T15:24:19;3.53;;;1.50;;
46717;SDS011;32448;44.960;-0.698;2024-02-15T15:26:46;2.50;;;1.52;;
46717;SDS011;32448;44.960;-0.698;2024-02-15T15:29:16;3.28;;;1.60;;
46717;SDS011;32448;44.960;-0.698;2024-02-15T15:31:43;3.90;;;1.52;;
46717;SDS011;32448;44.960;-0.698;2024-02-15T15:37:08;4.63;;;1.65;;
46717;SDS011;32448;44.960;-0.698;2024-02-15T15:42:40;3.13;;;1.65;;
46717;SDS011;32448;44.960;-0.698;2024-02-15T15:45:37;5.00;;;1.70;;
46717;SDS011;32448;44.960;-0.698;2024-02-15T15:48:14;2.58;;;1.63;;